Time;durP1;ratioP1;P1;durP2;ratioP2;P2;SDS_P1;SDS_P2;PMS_P1;PMS_P2;Temp;Humidity;BMP_temperature;BMP_pressure;BME280_temperature;BME280_humidity;BME280_pressure;Samples;Min_cycle;Max_cycle;Signal;HPM_P1;HPM_P2
2021/01/06 00:00:18;;;;;;;15.20;10.13;;;3.40;99.90;;;;;;5050360;28;20176;-66
2021/01/06 00:02:44;;;;;;;14.20;9.87;;;3.40;99.90;;;;;;5050487;28;20503;-66
2021/01/06 00:05:15;;;;;;;14.87;10.23;;;3.30;99.90;;;;;;5050147;28;20425;-67
2021/01/06 00:07:44;;;;;;;16.53;11.10;;;3.30;99.90;;;;;;5050424;28;20178;-65
2021/01/06 00:10:13;;;;;;;16.90;10.83;;;3.20;99.90;;;;;;5051947;28;20520;-67
2021/01/06 00:12:42;;;;;;;16.23;11.33;;;3.30;99.90;;;;;;5028941;28;20452;-65
2021/01/06 00:15:17;;;;;;;17.90;11.90;;;3.30;99.90;;;;;;5052510;28;20449;-66
2021/01/06 00:17:43;;;;;;;18.27;11.27;;;3.20;99.90;;;;;;5036712;28;20409;-66
2021/01/06 00:20:11;;;;;;;17.50;11.57;;;3.20;99.90;;;;;;5052104;28;20821;-67
2021/01/06 00:22:38;;;;;;;16.23;10.50;;;3.30;99.90;;;;;;5048940;28;20907;-64
2021/01/06 00:25:05;;;;;;;14.77;10.67;;;3.30;99.90;;;;;;5052355;28;20895;-66
2021/01/06 00:27:31;;;;;;;14.97;10.17;;;3.30;99.90;;;;;;5038632;28;20418;-66
2021/01/06 00:29:57;;;;;;;14.60;10.47;;;3.40;99.90;;;;;;5044099;28;20440;-66
2021/01/06 00:32:22;;;;;;;13.43;9.77;;;3.30;99.90;;;;;;5053747;28;20175;-68
2021/01/06 00:34:48;;;;;;;14.40;9.90;;;3.30;99.90;;;;;;5045556;28;20253;-65
2021/01/06 00:37:15;;;;;;;12.47;9.30;;;3.40;99.90;;;;;;5053779;28;20676;-67
2021/01/06 00:39:40;;;;;;;13.33;9.67;;;3.30;99.90;;;;;;5048051;28;20201;-64
2021/01/06 00:42:06;;;;;;;13.30;9.40;;;3.30;99.90;;;;;;5053417;28;20413;-67
2021/01/06 00:44:32;;;;;;;14.30;9.47;;;3.30;99.90;;;;;;5053525;28;20614;-67
2021/01/06 00:46:57;;;;;;;14.80;9.63;;;3.20;99.90;;;;;;5053537;28;20178;-64
2021/01/06 00:49:23;;;;;;;12.10;8.57;;;3.20;99.90;;;;;;5053425;28;20706;-66
2021/01/06 00:51:49;;;;;;;13.87;8.83;;;3.20;99.90;;;;;;5050682;28;20217;-67
2021/01/06 00:54:16;;;;;;;14.03;8.37;;;3.30;99.90;;;;;;5053157;28;20536;-66
2021/01/06 00:56:41;;;;;;;14.07;9.03;;;3.30;99.90;;;;;;5053621;28;20492;-65
2021/01/06 00:59:07;;;;;;;12.30;9.07;;;3.20;99.90;;;;;;5053055;28;20452;-65
2021/01/06 01:01:32;;;;;;;11.00;7.90;;;3.20;99.90;;;;;;5053255;28;20171;-65
2021/01/06 01:03:58;;;;;;;11.37;8.63;;;3.30;99.90;;;;;;5053424;28;20190;-66
2021/01/06 01:06:29;;;;;;;15.77;9.17;;;3.30;99.90;;;;;;5049036;28;20630;-67
2021/01/06 01:08:55;;;;;;;12.70;8.87;;;3.30;99.90;;;;;;5035415;28;20226;-67
2021/01/06 01:11:22;;;;;;;12.80;8.97;;;3.20;99.90;;;;;;5049620;28;20939;-66
2021/01/06 01:13:49;;;;;;;13.83;9.30;;;3.20;99.90;;;;;;5018132;28;20442;-65
2021/01/06 01:16:15;;;;;;;11.90;8.30;;;3.20;99.90;;;;;;5045449;28;20449;-65
2021/01/06 01:18:41;;;;;;;12.17;8.47;;;3.20;99.90;;;;;;5034495;28;20434;-66
2021/01/06 01:21:06;;;;;;;13.07;9.37;;;3.20;99.90;;;;;;5044040;28;20654;-67
2021/01/06 01:23:32;;;;;;;11.77;9.43;;;3.20;99.90;;;;;;5032198;28;20183;-66
2021/01/06 01:25:58;;;;;;;15.43;9.53;;;3.20;99.90;;;;;;5040540;28;20189;-66
2021/01/06 01:28:25;;;;;;;15.57;9.87;;;3.20;99.90;;;;;;5049841;28;20186;-66
2021/01/06 01:30:51;;;;;;;12.17;9.03;;;3.20;99.90;;;;;;5042709;28;20913;-66
2021/01/06 01:33:22;;;;;;;11.63;9.17;;;3.10;99.90;;;;;;5032777;28;20446;-65
2021/01/06 01:35:48;;;;;;;13.60;9.47;;;3.10;99.90;;;;;;5035398;28;20454;-67
2021/01/06 01:38:17;;;;;;;12.53;8.60;;;3.20;99.90;;;;;;5032579;28;20422;-64
2021/01/06 01:40:43;;;;;;;14.43;8.70;;;3.10;99.90;;;;;;5042165;28;20549;-65
2021/01/06 01:43:20;;;;;;;11.33;8.67;;;3.10;99.90;;;;;;5047155;28;20413;-66
2021/01/06 01:45:45;;;;;;;13.30;8.87;;;3.10;99.90;;;;;;5048098;28;20179;-66
2021/01/06 01:48:15;;;;;;;12.23;9.07;;;3.10;99.90;;;;;;5046403;28;20406;-67
2021/01/06 01:50:41;;;;;;;13.60;9.20;;;3.00;99.90;;;;;;5042187;28;20176;-66
2021/01/06 01:53:09;;;;;;;11.73;8.73;;;3.00;99.90;;;;;;5041078;28;20422;-66
2021/01/06 01:55:37;;;;;;;15.03;10.23;;;3.10;99.90;;;;;;5042244;28;20227;-67
2021/01/06 01:58:09;;;;;;;12.00;8.20;;;3.10;99.90;;;;;;5048668;28;20479;-66
2021/01/06 02:00:37;;;;;;;13.47;9.53;;;3.10;99.90;;;;;;5037373;28;20401;-67
2021/01/06 02:03:13;;;;;;;11.67;8.70;;;3.10;99.90;;;;;;5046528;28;20410;-66
2021/01/06 02:06:10;;;;;;;14.00;9.00;;;3.20;99.90;;;;;;5038353;28;20931;-67
2021/01/06 02:08:49;;;;;;;12.40;8.57;;;3.20;99.90;;;;;;5036653;28;20933;-67
2021/01/06 02:11:22;;;;;;;13.67;9.60;;;3.20;99.90;;;;;;5051036;28;20556;-65
2021/01/06 02:14:14;;;;;;;14.33;10.13;;;3.10;99.90;;;;;;5034454;28;20417;-67
2021/01/06 02:17:02;;;;;;;13.13;9.33;;;3.10;99.90;;;;;;5023450;28;20524;-64
2021/01/06 02:19:32;;;;;;;14.07;10.37;;;3.10;99.90;;;;;;5051038;28;20401;-66
2021/01/06 02:21:58;;;;;;;12.33;9.33;;;3.10;99.90;;;;;;5051579;28;20425;-66
2021/01/06 02:24:24;;;;;;;15.03;10.30;;;3.20;99.90;;;;;;5051432;28;20413;-65
2021/01/06 02:26:50;;;;;;;11.57;9.10;;;3.20;99.90;;;;;;5051843;28;20241;-67
2021/01/06 02:29:17;;;;;;;14.60;9.77;;;3.10;99.90;;;;;;5051548;28;20402;-67
2021/01/06 02:31:43;;;;;;;13.43;9.77;;;3.10;99.90;;;;;;5051595;28;20587;-65
2021/01/06 02:34:10;;;;;;;14.20;9.87;;;3.00;99.90;;;;;;5051418;28;20408;-65
2021/01/06 02:36:36;;;;;;;13.60;9.27;;;3.00;99.90;;;;;;5051597;28;20405;-65
2021/01/06 02:39:05;;;;;;;13.83;9.97;;;3.10;99.90;;;;;;5051505;28;20429;-66
2021/01/06 02:41:31;;;;;;;14.47;10.10;;;3.10;99.90;;;;;;5050457;28;20180;-67
2021/01/06 02:43:57;;;;;;;13.03;8.93;;;3.10;99.90;;;;;;5051385;28;20904;-66
2021/01/06 02:46:22;;;;;;;14.60;9.67;;;3.10;99.90;;;;;;5051252;28;20182;-66
2021/01/06 02:48:48;;;;;;;15.90;9.30;;;3.10;99.90;;;;;;5051277;28;20229;-65
2021/01/06 02:51:30;;;;;;;14.87;9.17;;;3.10;99.90;;;;;;5050967;28;20183;-65
2021/01/06 02:54:01;;;;;;;14.70;9.50;;;3.10;99.90;;;;;;5050942;28;20265;-67
2021/01/06 02:56:28;;;;;;;13.40;9.03;;;3.20;99.90;;;;;;5050855;28;20461;-67
2021/01/06 02:58:54;;;;;;;13.37;9.23;;;3.20;99.90;;;;;;5051015;28;20417;-65
2021/01/06 03:01:23;;;;;;;11.73;8.57;;;3.20;99.90;;;;;;5050986;28;20418;-67
2021/01/06 03:03:51;;;;;;;12.87;9.20;;;3.10;99.90;;;;;;5051126;28;20477;-64
2021/01/06 03:06:25;;;;;;;12.47;9.00;;;3.10;99.90;;;;;;5051083;28;20453;-67
2021/01/06 03:08:51;;;;;;;13.23;8.93;;;3.20;99.90;;;;;;5051093;28;20950;-66
2021/01/06 03:11:17;;;;;;;12.37;8.43;;;3.20;99.90;;;;;;5051319;28;20461;-67
2021/01/06 03:13:42;;;;;;;12.30;9.33;;;3.20;99.90;;;;;;5050921;28;20674;-65
2021/01/06 03:16:08;;;;;;;15.50;9.63;;;3.10;99.90;;;;;;5050930;28;20272;-66
2021/01/06 03:18:35;;;;;;;12.67;8.97;;;3.20;99.90;;;;;;5050729;28;20213;-66
2021/01/06 03:21:04;;;;;;;15.63;9.80;;;3.00;99.90;;;;;;5051125;28;20178;-67
2021/01/06 03:23:32;;;;;;;13.10;9.43;;;3.10;99.90;;;;;;5049750;28;20444;-66
2021/01/06 03:26:02;;;;;;;14.33;10.47;;;3.10;99.90;;;;;;5050598;28;20426;-67
2021/01/06 03:28:31;;;;;;;14.60;9.80;;;3.10;99.90;;;;;;5050754;28;20471;-66
2021/01/06 03:30:58;;;;;;;10.30;8.43;;;3.10;99.90;;;;;;5050775;28;20749;-66
2021/01/06 03:33:55;;;;;;;14.73;9.20;;;3.10;99.90;;;;;;5050638;28;20424;-65
2021/01/06 03:36:25;;;;;;;12.07;9.37;;;3.10;99.90;;;;;;5045507;28;20438;-66
2021/01/06 03:39:01;;;;;;;13.20;8.77;;;3.20;99.90;;;;;;5049586;28;20414;-66
2021/01/06 03:41:29;;;;;;;13.10;9.60;;;3.20;99.90;;;;;;5050116;28;20452;-67
2021/01/06 03:44:05;;;;;;;15.87;8.73;;;3.10;99.90;;;;;;5050494;28;20432;-67
2021/01/06 03:46:46;;;;;;;11.23;8.80;;;3.20;99.90;;;;;;5053264;28;20413;-66
2021/01/06 03:49:18;;;;;;;11.47;8.20;;;3.20;99.90;;;;;;5054498;28;20431;-65
2021/01/06 03:52:01;;;;;;;12.57;9.40;;;3.10;99.90;;;;;;5054446;28;21054;-66
2021/01/06 03:54:52;;;;;;;12.23;8.60;;;3.10;99.90;;;;;;5054448;28;20482;-65
2021/01/06 03:57:20;;;;;;;12.67;9.50;;;3.10;99.90;;;;;;5039197;28;20413;-67
2021/01/06 03:59:49;;;;;;;11.57;8.87;;;3.10;99.90;;;;;;5054485;28;20474;-64
2021/01/06 04:02:24;;;;;;;11.97;9.23;;;3.10;99.90;;;;;;5054057;28;20444;-66
2021/01/06 04:05:15;;;;;;;11.07;9.10;;;3.10;99.90;;;;;;5053553;28;20401;-65
2021/01/06 04:07:49;;;;;;;10.80;8.57;;;3.10;99.90;;;;;;5053192;28;20457;-65
2021/01/06 04:10:25;;;;;;;11.80;8.97;;;3.10;99.90;;;;;;5053945;28;20907;-66
2021/01/06 04:12:51;;;;;;;11.90;8.83;;;3.10;99.90;;;;;;5051828;28;20531;-66
2021/01/06 04:15:17;;;;;;;12.53;9.67;;;3.20;99.90;;;;;;5054025;28;20612;-66
2021/01/06 04:17:48;;;;;;;12.87;8.70;;;3.20;99.90;;;;;;5053931;28;20526;-66
2021/01/06 04:20:14;;;;;;;11.03;8.33;;;3.20;99.90;;;;;;5053885;28;20449;-66
2021/01/06 04:22:50;;;;;;;11.10;8.73;;;3.10;99.90;;;;;;5054187;28;20468;-65
2021/01/06 04:25:18;;;;;;;11.93;7.80;;;3.10;99.90;;;;;;5053853;28;20261;-65
2021/01/06 04:27:44;;;;;;;11.27;8.57;;;3.20;99.90;;;;;;5054011;28;20904;-66
2021/01/06 04:30:18;;;;;;;12.77;9.10;;;3.20;99.90;;;;;;5054063;28;20417;-65
2021/01/06 04:32:44;;;;;;;10.37;8.57;;;3.20;99.90;;;;;;5053669;28;20178;-65
2021/01/06 04:35:12;;;;;;;11.33;8.13;;;3.10;99.90;;;;;;5053776;28;20449;-65
2021/01/06 04:37:37;;;;;;;9.40;7.50;;;3.10;99.90;;;;;;5053571;28;20178;-65
2021/01/06 04:40:03;;;;;;;11.53;8.03;;;3.20;99.90;;;;;;5053725;28;20425;-65
2021/01/06 04:42:31;;;;;;;11.70;8.27;;;3.20;99.90;;;;;;5053445;28;20266;-64
2021/01/06 04:45:08;;;;;;;9.73;7.77;;;3.20;99.90;;;;;;5053675;28;20907;-64
2021/01/06 04:47:52;;;;;;;11.33;8.20;;;3.20;99.90;;;;;;5053256;28;20421;-65
2021/01/06 04:50:36;;;;;;;11.03;8.07;;;3.20;99.90;;;;;;5035310;28;20447;-65
2021/01/06 04:53:11;;;;;;;10.50;8.37;;;3.20;99.90;;;;;;5053345;28;20422;-65
2021/01/06 04:55:55;;;;;;;11.07;8.30;;;3.10;99.90;;;;;;5053420;28;20918;-65
2021/01/06 04:58:57;;;;;;;11.73;8.70;;;3.20;99.90;;;;;;5052388;28;20417;-66
2021/01/06 05:01:35;;;;;;;10.97;8.73;;;3.20;99.90;;;;;;5053450;28;20492;-66
2021/01/06 05:04:31;;;;;;;9.57;7.47;;;3.20;99.90;;;;;;5053063;28;20405;-65
2021/01/06 05:07:04;;;;;;;11.53;8.23;;;3.10;99.90;;;;;;5052616;28;20487;-65
2021/01/06 05:09:45;;;;;;;10.43;8.23;;;3.10;99.90;;;;;;5052825;28;20429;-67
2021/01/06 05:12:24;;;;;;;9.33;7.97;;;3.10;99.90;;;;;;5053285;28;20449;-67
2021/01/06 05:14:59;;;;;;;11.33;8.43;;;3.10;99.90;;;;;;5052891;28;20468;-66
2021/01/06 05:17:25;;;;;;;12.90;8.87;;;3.10;99.90;;;;;;5052680;28;20737;-67
2021/01/06 05:19:51;;;;;;;10.10;8.37;;;3.20;99.90;;;;;;5052850;28;20416;-67
2021/01/06 05:22:17;;;;;;;11.70;8.83;;;3.20;99.90;;;;;;5052760;28;20252;-66
2021/01/06 05:24:51;;;;;;;11.17;8.90;;;3.20;99.90;;;;;;5053073;28;20413;-66
2021/01/06 05:27:24;;;;;;;12.13;8.13;;;3.20;99.90;;;;;;5052709;28;20409;-66
2021/01/06 05:30:00;;;;;;;11.50;8.60;;;3.20;99.90;;;;;;5052647;28;20412;-66
2021/01/06 05:32:37;;;;;;;11.33;8.10;;;3.30;99.90;;;;;;5052372;28;20417;-67
2021/01/06 05:35:15;;;;;;;10.93;7.60;;;3.20;99.90;;;;;;5052700;28;20950;-65
2021/01/06 05:37:44;;;;;;;11.97;9.20;;;3.20;99.90;;;;;;5052364;28;20413;-66
2021/01/06 05:40:12;;;;;;;11.83;9.00;;;3.20;99.90;;;;;;5052506;28;20425;-67
2021/01/06 05:42:51;;;;;;;12.23;8.30;;;3.10;99.90;;;;;;5052371;28;20767;-64
2021/01/06 05:45:22;;;;;;;13.57;8.60;;;3.10;99.90;;;;;;5051109;28;20409;-66
2021/01/06 05:48:06;;;;;;;12.77;8.53;;;3.10;99.90;;;;;;5035121;28;20453;-67
2021/01/06 05:50:40;;;;;;;12.53;8.83;;;3.00;99.90;;;;;;5052102;28;20413;-65
2021/01/06 05:53:18;;;;;;;11.80;8.43;;;3.00;99.90;;;;;;5052453;28;20453;-67
2021/01/06 05:55:50;;;;;;;12.10;8.83;;;3.10;99.90;;;;;;5052050;28;20451;-64
2021/01/06 05:58:31;;;;;;;10.87;8.20;;;3.00;99.90;;;;;;5052527;28;20409;-65
2021/01/06 06:01:07;;;;;;;11.73;7.97;;;3.00;99.90;;;;;;5052075;28;20818;-66
2021/01/06 06:03:47;;;;;;;12.47;9.33;;;3.10;99.90;;;;;;5052050;28;20818;-66
2021/01/06 06:06:31;;;;;;;11.77;9.00;;;3.10;99.90;;;;;;5052082;28;20504;-65
2021/01/06 06:09:34;;;;;;;13.73;8.63;;;3.00;99.90;;;;;;5051622;28;20510;-65
2021/01/06 06:12:10;;;;;;;11.47;8.87;;;3.10;99.90;;;;;;4980637;28;20584;-64
2021/01/06 06:14:59;;;;;;;12.97;8.77;;;3.00;99.90;;;;;;5051556;28;20461;-66
2021/01/06 06:17:33;;;;;;;12.37;8.43;;;3.00;99.90;;;;;;5051722;28;20813;-66
2021/01/06 06:20:30;;;;;;;14.83;9.57;;;3.00;99.90;;;;;;5051432;28;20424;-66
2021/01/06 06:23:14;;;;;;;15.30;8.37;;;2.90;99.90;;;;;;5051331;28;20406;-64
2021/01/06 06:26:06;;;;;;;12.93;8.77;;;2.90;99.90;;;;;;5051685;28;21370;-65
2021/01/06 06:28:40;;;;;;;10.53;7.93;;;2.90;99.90;;;;;;5051579;28;20779;-64
2021/01/06 06:31:16;;;;;;;10.30;7.83;;;3.00;99.90;;;;;;5051294;28;20547;-67
2021/01/06 06:33:42;;;;;;;10.10;7.17;;;3.00;99.90;;;;;;5051520;28;20448;-64
2021/01/06 06:36:21;;;;;;;13.67;8.17;;;3.00;99.90;;;;;;5051216;28;20812;-67
2021/01/06 06:38:49;;;;;;;11.13;8.50;;;3.00;99.90;;;;;;5051477;28;20183;-66
2021/01/06 06:41:34;;;;;;;17.23;8.47;;;2.90;99.90;;;;;;5051364;28;20496;-66
2021/01/06 06:44:21;;;;;;;13.97;8.47;;;2.90;99.90;;;;;;5051312;28;20413;-65
2021/01/06 06:46:58;;;;;;;13.70;8.70;;;2.90;99.90;;;;;;5051555;28;20985;-65
2021/01/06 06:49:32;;;;;;;15.00;8.70;;;2.90;99.90;;;;;;5051105;28;20409;-66
2021/01/06 06:52:13;;;;;;;13.83;8.57;;;3.00;99.90;;;;;;5051073;28;20428;-66
2021/01/06 06:54:58;;;;;;;12.73;8.67;;;3.00;99.90;;;;;;5051253;28;20558;-65
2021/01/06 06:57:33;;;;;;;11.30;8.40;;;3.10;99.90;;;;;;5051011;28;20460;-66
2021/01/06 07:00:20;;;;;;;11.57;8.50;;;3.20;99.90;;;;;;5051060;28;20500;-64
2021/01/06 07:02:50;;;;;;;14.07;8.53;;;3.10;99.90;;;;;;5051068;28;20406;-65
2021/01/06 07:05:27;;;;;;;13.07;8.17;;;3.20;99.90;;;;;;5050696;28;20421;-65
2021/01/06 07:07:56;;;;;;;13.53;8.27;;;3.20;99.90;;;;;;5050963;28;20422;-65
2021/01/06 07:10:26;;;;;;;11.57;8.63;;;3.20;99.90;;;;;;5050401;28;20421;-66
2021/01/06 07:12:55;;;;;;;12.23;8.50;;;3.20;99.90;;;;;;5049098;28;20526;-65
2021/01/06 07:15:20;;;;;;;12.87;9.00;;;3.20;99.90;;;;;;5050829;28;21233;-66
2021/01/06 07:17:46;;;;;;;14.63;9.03;;;3.10;99.90;;;;;;5051054;28;20418;-65
2021/01/06 07:20:28;;;;;;;13.07;8.97;;;3.20;99.90;;;;;;5050259;28;20187;-68
2021/01/06 07:22:58;;;;;;;13.47;9.53;;;3.10;99.90;;;;;;5051387;28;20638;-64
2021/01/06 07:25:32;;;;;;;13.97;8.70;;;3.10;99.90;;;;;;5050872;28;20417;-66
2021/01/06 07:28:01;;;;;;;12.57;8.83;;;3.10;99.90;;;;;;5050692;28;20429;-66
2021/01/06 07:30:32;;;;;;;14.47;8.77;;;3.10;99.90;;;;;;5050873;28;20472;-66
2021/01/06 07:32:59;;;;;;;13.20;9.03;;;3.10;99.90;;;;;;5050840;28;20429;-65
2021/01/06 07:35:28;;;;;;;13.10;9.13;;;3.10;99.90;;;;;;5050593;28;20799;-67
2021/01/06 07:38:06;;;;;;;11.33;8.17;;;3.00;99.90;;;;;;5050234;28;20764;-64
2021/01/06 07:40:40;;;;;;;15.60;9.07;;;3.20;99.90;;;;;;5050622;28;20438;-66
2021/01/06 07:43:16;;;;;;;16.63;8.43;;;3.10;99.90;;;;;;5050415;28;20413;-66
2021/01/06 07:46:08;;;;;;;12.77;8.87;;;3.10;99.90;;;;;;5050368;28;20834;-65
2021/01/06 07:48:42;;;;;;;11.80;8.37;;;3.10;99.90;;;;;;5040126;28;20418;-67
2021/01/06 07:51:23;;;;;;;12.17;8.40;;;3.10;99.90;;;;;;5050070;28;20420;-65
2021/01/06 07:54:05;;;;;;;16.77;9.17;;;3.20;99.90;;;;;;5050231;28;20418;-65
2021/01/06 07:56:43;;;;;;;10.80;8.03;;;3.10;99.90;;;;;;5050210;28;20506;-67
2021/01/06 07:59:21;;;;;;;12.03;8.27;;;3.20;99.90;;;;;;5050295;28;20417;-64
2021/01/06 08:01:52;;;;;;;12.63;8.03;;;3.20;99.90;;;;;;5050348;28;20459;-65
2021/01/06 08:04:30;;;;;;;11.63;8.23;;;3.20;99.90;;;;;;5048837;28;20772;-66
2021/01/06 08:06:59;;;;;;;11.63;8.10;;;3.20;99.90;;;;;;5049770;28;20961;-67
2021/01/06 08:09:26;;;;;;;11.13;7.50;;;3.20;99.90;;;;;;5050359;28;20414;-66
2021/01/06 08:11:52;;;;;;;11.03;8.10;;;3.10;99.90;;;;;;5050875;28;20453;-67
2021/01/06 08:14:23;;;;;;;12.10;7.80;;;3.10;99.90;;;;;;5050200;28;20528;-65
2021/01/06 08:16:56;;;;;;;9.63;7.30;;;3.10;99.90;;;;;;5050422;28;20167;-64
2021/01/06 08:19:35;;;;;;;9.63;6.70;;;3.20;99.90;;;;;;5050397;28;21047;-65
2021/01/06 08:22:09;;;;;;;8.90;6.80;;;3.20;99.90;;;;;;5050420;28;20939;-66
2021/01/06 08:24:42;;;;;;;11.70;7.00;;;3.20;99.90;;;;;;5050281;28;20511;-68
2021/01/06 08:27:14;;;;;;;8.17;6.03;;;3.30;99.90;;;;;;5050226;28;20409;-66
2021/01/06 08:29:40;;;;;;;9.97;6.83;;;3.20;99.90;;;;;;5050496;28;20426;-65
2021/01/06 08:32:22;;;;;;;11.53;6.87;;;3.20;99.90;;;;;;5052349;28;20764;-66
2021/01/06 08:34:59;;;;;;;8.13;6.13;;;3.10;99.90;;;;;;5053665;28;20199;-65
2021/01/06 08:37:35;;;;;;;9.93;6.87;;;3.10;99.90;;;;;;5053766;28;20505;-65
2021/01/06 08:40:04;;;;;;;8.77;6.60;;;3.10;99.90;;;;;;5053627;28;20417;-65
2021/01/06 08:42:41;;;;;;;9.40;6.80;;;3.10;99.90;;;;;;5035705;28;20492;-65
2021/01/06 08:45:19;;;;;;;10.03;6.70;;;3.20;99.90;;;;;;5053645;28;20471;-66
2021/01/06 08:47:44;;;;;;;10.23;6.50;;;3.20;99.90;;;;;;5053192;28;20501;-65
2021/01/06 08:50:16;;;;;;;8.70;6.17;;;3.20;99.90;;;;;;5053433;28;20508;-64
2021/01/06 08:52:48;;;;;;;10.03;6.00;;;3.20;99.90;;;;;;5053600;28;20657;-65
2021/01/06 08:55:22;;;;;;;8.43;6.60;;;3.30;99.90;;;;;;5053175;28;20548;-66
2021/01/06 08:58:04;;;;;;;14.07;7.00;;;3.30;99.90;;;;;;5053290;28;20425;-65
2021/01/06 09:00:52;;;;;;;9.13;6.30;;;3.30;99.90;;;;;;5053281;28;20908;-63
2021/01/06 09:03:54;;;;;;;8.23;6.20;;;3.30;99.90;;;;;;5042493;28;20811;-66
2021/01/06 09:06:21;;;;;;;9.83;6.03;;;3.30;99.90;;;;;;5053215;28;20447;-64
2021/01/06 09:09:03;;;;;;;9.27;6.67;;;3.30;99.90;;;;;;5052992;28;20438;-66
2021/01/06 09:11:34;;;;;;;8.13;6.10;;;3.30;99.90;;;;;;5052188;28;20939;-64
2021/01/06 09:14:27;;;;;;;8.57;6.10;;;3.30;99.90;;;;;;5053054;28;20422;-63
2021/01/06 09:17:00;;;;;;;8.57;6.23;;;3.30;99.90;;;;;;5052689;28;20479;-65
2021/01/06 09:19:46;;;;;;;15.40;7.30;;;3.30;99.90;;;;;;5052968;28;20410;-67
2021/01/06 09:22:14;;;;;;;10.30;6.77;;;3.30;99.90;;;;;;5052933;28;20899;-63
2021/01/06 09:24:42;;;;;;;9.83;7.00;;;3.40;99.90;;;;;;5034723;28;20521;-66
2021/01/06 09:27:29;;;;;;;9.93;7.17;;;3.40;99.90;;;;;;5052644;28;20496;-67
2021/01/06 09:29:58;;;;;;;11.33;6.97;;;3.40;99.90;;;;;;5052708;28;20409;-67
2021/01/06 09:32:33;;;;;;;10.93;7.47;;;3.40;99.90;;;;;;5052668;28;20429;-66
2021/01/06 09:35:06;;;;;;;10.40;7.07;;;3.50;99.90;;;;;;5052525;28;20461;-67
2021/01/06 09:37:34;;;;;;;14.50;8.50;;;3.40;99.90;;;;;;5052466;28;20927;-65
2021/01/06 09:40:13;;;;;;;13.17;8.50;;;3.40;99.90;;;;;;5052070;28;20421;-64
2021/01/06 09:42:40;;;;;;;11.67;7.93;;;3.40;99.90;;;;;;5051438;28;20468;-64
2021/01/06 09:45:12;;;;;;;11.57;8.20;;;3.40;99.90;;;;;;5052146;28;20414;-65
2021/01/06 09:47:39;;;;;;;10.50;7.80;;;3.40;99.90;;;;;;5052312;28;20453;-64
2021/01/06 09:50:37;;;;;;;15.00;8.53;;;3.40;99.90;;;;;;5052034;28;20413;-66
2021/01/06 09:53:08;;;;;;;13.37;8.60;;;3.40;99.90;;;;;;5036405;28;20425;-64
2021/01/06 09:55:35;;;;;;;14.67;8.70;;;3.30;99.90;;;;;;5052147;28;20460;-64
2021/01/06 09:58:30;;;;;;;16.00;8.73;;;3.50;99.90;;;;;;5052278;28;20900;-67
2021/01/06 10:02:02;;;;;;;13.23;8.07;;;3.50;99.90;;;;;;5032086;28;20516;-65
2021/01/06 10:04:33;;;;;;;12.57;8.40;;;3.50;99.90;;;;;;5006239;28;20436;-65
2021/01/06 10:07:24;;;;;;;11.93;8.50;;;3.60;99.90;;;;;;5052033;28;20495;-65
2021/01/06 10:10:01;;;;;;;12.47;8.40;;;3.50;99.90;;;;;;5052203;28;20409;-65
2021/01/06 10:12:54;;;;;;;12.47;8.60;;;3.50;99.90;;;;;;5052429;28;21159;-67
2021/01/06 10:15:32;;;;;;;16.03;8.90;;;3.40;99.90;;;;;;5051636;28;20449;-66
2021/01/06 10:18:12;;;;;;;18.67;8.67;;;3.40;99.90;;;;;;5052277;28;20425;-66
2021/01/06 10:20:47;;;;;;;15.70;9.30;;;3.60;99.90;;;;;;5051681;28;20956;-66
2021/01/06 10:23:34;;;;;;;13.90;8.77;;;3.60;99.90;;;;;;5051943;28;20416;-64
2021/01/06 10:26:33;;;;;;;13.23;8.40;;;3.60;99.90;;;;;;5051815;28;20425;-67
2021/01/06 10:29:14;;;;;;;12.43;8.00;;;3.60;99.90;;;;;;5051752;28;20480;-66
2021/01/06 10:32:07;;;;;;;12.40;8.47;;;3.70;99.90;;;;;;5051469;28;20507;-66
2021/01/06 10:34:42;;;;;;;12.37;9.10;;;3.70;99.90;;;;;;5051257;28;20484;-67
2021/01/06 10:37:27;;;;;;;16.60;8.93;;;3.70;99.90;;;;;;5051572;28;20488;-68
2021/01/06 10:40:17;;;;;;;12.77;8.50;;;3.70;99.90;;;;;;5051369;28;20406;-66
2021/01/06 10:42:43;;;;;;;14.03;9.27;;;3.70;99.90;;;;;;5050602;28;20430;-66
2021/01/06 10:45:31;;;;;;;11.67;7.83;;;3.70;99.90;;;;;;5051556;28;20410;-66
2021/01/06 10:47:57;;;;;;;10.60;7.90;;;3.70;99.90;;;;;;5050330;28;20641;-65
2021/01/06 10:50:23;;;;;;;11.90;8.27;;;3.60;99.90;;;;;;5051090;28;20409;-65
2021/01/06 10:52:57;;;;;;;12.53;8.67;;;3.60;99.90;;;;;;5051292;28;20228;-66
2021/01/06 10:55:38;;;;;;;11.30;8.27;;;3.60;99.90;;;;;;5050335;28;20194;-66
2021/01/06 10:58:09;;;;;;;15.23;9.13;;;3.60;99.90;;;;;;5051295;28;20844;-67
2021/01/06 11:01:10;;;;;;;15.87;9.83;;;3.60;99.90;;;;;;5051030;28;20405;-67
2021/01/06 11:03:59;;;;;;;14.67;10.83;;;3.50;99.90;;;;;;4939372;29;20478;-68
2021/01/06 11:06:33;;;;;;;16.63;10.53;;;3.40;99.90;;;;;;5046137;28;20417;-66
2021/01/06 11:09:22;;;;;;;14.97;9.90;;;3.50;99.90;;;;;;5051184;28;20429;-67
2021/01/06 11:12:03;;;;;;;14.27;9.30;;;3.50;99.90;;;;;;5051235;28;20433;-67
2021/01/06 11:15:03;;;;;;;12.37;8.43;;;3.40;99.90;;;;;;5050675;28;20405;-66
2021/01/06 11:17:42;;;;;;;13.70;8.07;;;3.50;99.90;;;;;;5050569;28;20779;-67
2021/01/06 11:20:36;;;;;;;10.20;7.57;;;3.50;99.90;;;;;;5050736;28;20418;-65
2021/01/06 11:23:30;;;;;;;12.73;8.17;;;3.50;99.90;;;;;;5051072;28;20414;-65
2021/01/06 11:26:21;;;;;;;13.03;8.53;;;3.50;99.90;;;;;;5050719;28;20422;-67
2021/01/06 11:29:11;;;;;;;13.37;8.23;;;3.50;99.90;;;;;;5050716;28;20922;-67
2021/01/06 11:32:01;;;;;;;12.60;8.40;;;3.60;99.90;;;;;;5050655;28;20764;-66
2021/01/06 11:34:34;;;;;;;12.13;8.47;;;3.70;99.90;;;;;;5050678;28;20425;-66
2021/01/06 11:37:02;;;;;;;13.43;9.30;;;3.80;99.90;;;;;;5050578;28;20445;-66
2021/01/06 11:39:28;;;;;;;12.60;8.73;;;3.80;99.90;;;;;;5050837;28;20500;-67
2021/01/06 11:42:05;;;;;;;13.27;8.70;;;3.80;99.90;;;;;;5050486;28;20828;-66
2021/01/06 11:44:36;;;;;;;12.70;8.47;;;3.80;99.90;;;;;;5050622;28;20170;-64
2021/01/06 11:47:30;;;;;;;17.00;10.27;;;3.80;99.90;;;;;;5050420;28;20430;-66
2021/01/06 11:50:01;;;;;;;18.03;9.97;;;3.80;99.90;;;;;;5050580;28;20405;-65
2021/01/06 11:52:43;;;;;;;14.70;9.57;;;3.70;99.90;;;;;;5050668;28;20833;-67
2021/01/06 11:55:33;;;;;;;15.63;8.70;;;3.80;99.90;;;;;;5050497;28;20453;-66
2021/01/06 11:58:02;;;;;;;12.50;7.73;;;3.80;99.90;;;;;;5050345;28;20908;-65
2021/01/06 12:00:57;;;;;;;12.90;8.63;;;3.80;99.90;;;;;;5050339;28;20505;-68
2021/01/06 12:03:32;;;;;;;12.03;7.90;;;3.80;99.90;;;;;;5050446;28;20410;-65
2021/01/06 12:06:23;;;;;;;12.17;8.33;;;3.70;99.90;;;;;;5050751;28;21071;-65
2021/01/06 12:09:13;;;;;;;12.70;7.97;;;3.80;99.90;;;;;;5036868;28;20418;-67
2021/01/06 12:11:59;;;;;;;11.80;8.40;;;3.80;99.90;;;;;;5054698;28;20464;-67
2021/01/06 12:14:49;;;;;;;15.67;10.23;;;3.80;99.90;;;;;;5052016;28;20417;-66
2021/01/06 12:17:17;;;;;;;8.73;6.33;;;3.80;99.90;;;;;;5037828;28;20449;-63
2021/01/06 12:19:54;;;;;;;11.30;8.50;;;3.70;99.90;;;;;;5054003;28;20413;-67
2021/01/06 12:22:26;;;;;;;10.27;7.30;;;3.70;99.90;;;;;;5054050;28;20551;-67
2021/01/06 12:25:01;;;;;;;11.03;7.30;;;3.50;99.90;;;;;;5053955;28;20421;-68
2021/01/06 12:27:44;;;;;;;11.47;7.23;;;3.50;99.90;;;;;;5053869;28;20416;-67
2021/01/06 12:30:10;;;;;;;11.60;7.50;;;3.40;99.90;;;;;;5053765;28;20886;-68
2021/01/06 12:32:55;;;;;;;10.57;7.37;;;3.50;99.90;;;;;;5053706;28;20417;-67
2021/01/06 12:35:39;;;;;;;16.73;8.77;;;3.40;99.90;;;;;;5053301;28;20191;-65
2021/01/06 12:38:20;;;;;;;11.00;7.67;;;3.50;99.90;;;;;;5054207;28;20766;-67
2021/01/06 12:41:04;;;;;;;13.73;8.07;;;3.50;99.90;;;;;;5053410;28;20417;-66
2021/01/06 12:43:51;;;;;;;11.50;8.93;;;3.50;99.90;;;;;;5053338;28;20480;-68
2021/01/06 12:46:27;;;;;;;7.83;6.00;;;3.50;99.90;;;;;;5053530;28;20432;-67
2021/01/06 12:49:02;;;;;;;9.13;6.63;;;3.50;99.90;;;;;;5053578;28;20425;-65
2021/01/06 12:51:33;;;;;;;10.50;7.30;;;3.50;99.90;;;;;;5053094;28;20501;-67
2021/01/06 12:54:09;;;;;;;10.47;6.47;;;3.50;99.90;;;;;;5053176;28;20983;-65
2021/01/06 12:56:42;;;;;;;7.90;6.40;;;3.50;99.90;;;;;;5052878;28;20539;-68
2021/01/06 12:59:26;;;;;;;10.30;6.63;;;3.60;99.90;;;;;;5053367;28;20459;-66
2021/01/06 13:01:58;;;;;;;10.50;5.80;;;3.60;99.90;;;;;;5053187;28;20919;-69
2021/01/06 13:04:34;;;;;;;9.03;6.20;;;3.70;99.90;;;;;;5053141;28;20797;-65
2021/01/06 13:07:12;;;;;;;7.07;5.60;;;3.70;99.90;;;;;;5053019;28;20414;-66
2021/01/06 13:09:48;;;;;;;12.23;6.57;;;3.70;99.90;;;;;;5053169;28;20917;-66
2021/01/06 13:12:13;;;;;;;6.97;5.47;;;3.70;99.90;;;;;;5053104;28;20443;-64
2021/01/06 13:15:05;;;;;;;16.00;8.70;;;3.70;99.90;;;;;;5052746;28;20461;-64
2021/01/06 13:17:40;;;;;;;10.07;6.67;;;3.70;99.90;;;;;;5038332;28;20207;-65
2021/01/06 13:20:33;;;;;;;9.07;5.87;;;3.70;99.90;;;;;;5052333;28;20421;-64
2021/01/06 13:23:22;;;;;;;11.67;7.07;;;3.70;99.90;;;;;;5052758;28;20549;-63
2021/01/06 13:26:00;;;;;;;15.60;8.43;;;3.70;99.90;;;;;;5051964;28;20414;-65
2021/01/06 13:28:36;;;;;;;16.13;8.50;;;3.70;99.90;;;;;;5052815;28;20421;-65